Kukimaru No.13 — JD2457 — position and weather

sailwx.info

Track history (hours):
 
Tides and Currents Weather Stations Pressure Air Temp Water Temp Dewpoint Dewpoint Depression Visibility Wind Speed Wind Dir Waves Ship Positions

Kukimaru No.13

Last reported at 2018-Feb-22 07:00 UTC. Time now 2018-Feb-23 00:58 UTC.
Position N 34°05' E 132°35'.

Length 75 m.

Type: Cargo ship. MMSI: 431000251.

Date/timePositionNaut miles runAvg speedWind from/ knotsBaromVisibWave heightAir tempDewpointWater temp
2018-Feb-22 07:00N 34°05' E 132°35'6 0.3
2018-Feb-21 10:38N 34°11' E 132°37'  
2018-Feb-18 07:07N 34°31' E 134°41'310.7
2018-Feb-18 06:52N 34°32' E 134°44'411.0
2018-Feb-18 06:30N 34°34' E 134°48'5 9.6
2018-Feb-18 05:58N 34°36' E 134°54'4 9.5
2018-Feb-18 05:30N 34°37' E 134°59'4 8.8
2018-Feb-18 05:00N 34°36' E 135°04'611.5
2018-Feb-18 04:30N 34°36' E 135°11'611.8
2018-Feb-18 04:00N 34°37' E 135°18'510.5
2018-Feb-18 03:30N 34°36' E 135°25'2 3.1
2018-Feb-18 02:58N 34°35' E 135°26'0 0.0
2018-Feb-18 02:28N 34°35' E 135°26'0 0.0
2018-Feb-18 01:58N 34°35' E 135°26'0 0.0
2018-Feb-18 01:28N 34°35' E 135°26'0 0.0
2018-Feb-18 00:58N 34°35' E 135°26'0 0.0
2018-Feb-18 00:25N 34°35' E 135°26'0 0.0
2018-Feb-17 23:58N 34°35' E 135°26'0 0.0
2018-Feb-17 23:28N 34°35' E 135°26'0 0.0
2018-Feb-17 22:58N 34°35' E 135°26'0 0.0
2018-Feb-17 22:30N 34°35' E 135°26'1 1.2
2018-Feb-17 21:59N 34°35' E 135°27'0 0.0
2018-Feb-17 21:29N 34°35' E 135°27'0 0.1
2018-Feb-17 20:59N 34°35' E 135°27'0 0.0
2018-Feb-17 20:29N 34°35' E 135°27'0 0.0
2018-Feb-17 19:59N 34°35' E 135°27'0 0.1
2018-Feb-17 19:29N 34°35' E 135°27'0 0.8
2018-Feb-17 19:00N 34°35' E 135°26'5 9.6
2018-Feb-17 18:30N 34°35' E 135°21'510.9
2018-Feb-17 18:00N 34°31' E 135°16'510.5
2018-Feb-17 17:30N 34°27' E 135°12'510.4
2018-Feb-17 17:00N 34°23' E 135°08'510.1
2018-Feb-17 16:30N 34°19' E 135°05'4 8.4
2018-Feb-17 16:00N 34°15' E 135°03'5 9.9
2018-Feb-17 15:30N 34°10' E 135°02'510.0
2018-Feb-17 14:58N 34°05' E 135°02'510.1
2018-Feb-17 14:27N 34°00' E 135°02'243 8.5
2018-Feb-16 10:04N 35°11' E 139°44'211.5
2018-Feb-16 09:56N 35°12' E 139°45'510.8
2018-Feb-16 09:30N 35°17' E 139°45'611.2
2018-Feb-16 09:00N 35°22' E 139°42'5 9.8
2018-Feb-16 08:30N 35°26' E 139°46'510.2
2018-Feb-16 07:58N 35°22' E 139°51'1 0.1
2018-Feb-16 03:20N 35°21' E 139°51'0 0.0
2018-Feb-16 02:53N 35°21' E 139°51'0 0.0
2018-Feb-16 02:16N 35°21' E 139°51'0 0.0
2018-Feb-16 01:42N 35°21' E 139°51'0 0.2
2018-Feb-16 01:29N 35°21' E 139°51'0 0.1
2018-Feb-16 00:59N 35°21' E 139°51'0 0.1
2018-Feb-16 00:24N 35°21' E 139°51'0 0.0
2018-Feb-16 00:00N 35°21' E 139°51'0 0.0
2018-Feb-15 23:18N 35°21' E 139°51'0 0.0
2018-Feb-15 22:57N 35°21' E 139°51'0 0.0
2018-Feb-15 20:57N 35°21' E 139°51'0 0.0
2018-Feb-15 20:03N 35°21' E 139°51'0 0.0
2018-Feb-15 17:51N 35°21' E 139°51'0 0.0
2018-Feb-15 17:24N 35°21' E 139°51'0 0.0
2018-Feb-15 17:00N 35°21' E 139°51'0 0.0
2018-Feb-15 16:30N 35°21' E 139°51'0 0.0
2018-Feb-15 15:42N 35°21' E 139°51'0 0.0
2018-Feb-15 15:15N 35°21' E 139°51'0 0.0
2018-Feb-15 13:51N 35°21' E 139°51'0 0.0
2018-Feb-15 13:30N 35°21' E 139°51'0 0.0
2018-Feb-15 12:57N 35°21' E 139°51'0 0.0
2018-Feb-15 12:24N 35°21' E 139°51'0 0.0
2018-Feb-15 11:54N 35°21' E 139°51'0 0.0
2018-Feb-15 09:57N 35°21' E 139°51'0 0.0
2018-Feb-15 09:30N 35°21' E 139°51'0 0.0
2018-Feb-15 07:47N 35°21' E 139°51'0 0.0
2018-Feb-15 06:52N 35°21' E 139°51'0 0.1
2018-Feb-15 06:23N 35°21' E 139°51'0 0.1
2018-Feb-15 05:50N 35°21' E 139°51'0 0.0
2018-Feb-15 05:17N 35°21' E 139°51'0 0.0
2018-Feb-15 05:00N 35°21' E 139°51'0 0.0
2018-Feb-15 04:04N 35°21' E 139°51'0 0.1
2018-Feb-15 03:58N 35°21' E 139°51'0 0.0
2018-Feb-15 03:16N 35°21' E 139°51'0 0.1
2018-Feb-15 02:58N 35°21' E 139°51'0 0.0
2018-Feb-15 02:24N 35°21' E 139°51'0 0.0
2018-Feb-15 01:56N 35°21' E 139°51'0 0.0
2018-Feb-15 01:30N 35°21' E 139°51'0 0.0
2018-Feb-15 00:04N 35°21' E 139°51'0 0.1
2018-Feb-14 23:55N 35°21' E 139°51'0 0.0
2018-Feb-14 23:25N 35°21' E 139°51'0 0.0
2018-Feb-14 22:07N 35°21' E 139°51'0 0.0
2018-Feb-14 21:55N 35°21' E 139°51'0 0.0
2018-Feb-14 21:19N 35°21' E 139°51'0 0.0
2018-Feb-14 20:55N 35°21' E 139°51'0 0.0
2018-Feb-14 20:25N 35°21' E 139°51'0 0.0
2018-Feb-14 19:55N 35°21' E 139°51'0 0.0
2018-Feb-14 19:28N 35°21' E 139°51'0 0.0
2018-Feb-14 18:13N 35°21' E 139°51'0 0.1
2018-Feb-14 17:55N 35°21' E 139°51'0 0.0
2018-Feb-14 17:22N 35°21' E 139°51'0 0.0
2018-Feb-14 16:58N 35°21' E 139°51'0 0.0
2018-Feb-14 14:10N 35°21' E 139°51'0 0.0
2018-Feb-14 12:19N 35°21' E 139°51'0 0.0
2018-Feb-14 12:00N 35°21' E 139°51'0 0.0
2018-Feb-14 10:45N 35°21' E 139°51'0 0.0
2018-Feb-14 08:33N 35°21' E 139°51'0 0.0
2018-Feb-14 08:18N 35°21' E 139°51'0 0.0
2018-Feb-14 06:30N 35°21' E 139°51'0 0.1
2018-Feb-14 06:00N 35°21' E 139°51'0 0.0
2018-Feb-14 03:15N 35°21' E 139°51'0 0.0
2018-Feb-14 02:57N 35°21' E 139°51'0 0.0
2018-Feb-13 22:22N 35°21' E 139°51'2 3.2
2018-Feb-13 21:46N 35°22' E 139°49'0 0.0
2018-Feb-13 21:28N 35°22' E 139°49'0 0.0
2018-Feb-13 20:40N 35°22' E 139°49'0 0.0
2018-Feb-13 20:25N 35°22' E 139°49'0 0.0
2018-Feb-13 19:58N 35°22' E 139°49'0 0.0
2018-Feb-13 19:25N 35°22' E 139°49'0 0.1
2018-Feb-13 18:37N 35°22' E 139°49'0 0.0
2018-Feb-13 18:25N 35°22' E 139°49'0 0.0
2018-Feb-13 17:55N 35°22' E 139°49'0 0.0
2018-Feb-13 17:28N 35°22' E 139°49'0 0.0
2018-Feb-13 16:58N 35°22' E 139°49'0 0.0
2018-Feb-13 16:25N 35°22' E 139°49'0 0.0
2018-Feb-13 15:58N 35°22' E 139°49'1 1.5
2018-Feb-13 15:30N 35°22' E 139°48'5 9.4
2018-Feb-13 15:00N 35°19' E 139°44'612.1
2018-Feb-13 14:28N 35°13' E 139°47'910.9
2018-Feb-13 13:38N 35°06' E 139°39'37 3.6
2018-Feb-13 03:12N 34°43' E 139°04'311.4
2018-Feb-13 02:57N 34°41' E 139°02'11211.2
2018-Feb-12 16:56N 34°48' E 136°46'511.9
2018-Feb-12 16:30N 34°53' E 136°46'611.2
2018-Feb-12 16:00N 34°59' E 136°48'510.9
2018-Feb-12 15:30N 35°03' E 136°52'1 2.8
2018-Feb-12 14:58N 35°05' E 136°52'0 0.0
2018-Feb-12 14:28N 35°05' E 136°52'0 0.0
2018-Feb-12 13:58N 35°05' E 136°52'0 0.0
2018-Feb-12 13:28N 35°05' E 136°52'0 0.0
2018-Feb-12 12:58N 35°05' E 136°52'0 0.0
2018-Feb-12 12:28N 35°05' E 136°52'0 0.0
2018-Feb-12 11:58N 35°05' E 136°52'0 0.0
2018-Feb-12 11:28N 35°05' E 136°52'0 0.0
2018-Feb-12 10:58N 35°05' E 136°52'0 0.0
2018-Feb-12 10:28N 35°05' E 136°52'0 0.0
2018-Feb-12 09:55N 35°05' E 136°52'0 0.0
2018-Feb-12 09:25N 35°05' E 136°52'0 0.0
2018-Feb-12 08:52N 35°05' E 136°52'0 0.0
2018-Feb-12 08:28N 35°05' E 136°52'0 0.0
2018-Feb-12 07:58N 35°05' E 136°52'0 0.0
2018-Feb-12 07:25N 35°05' E 136°52'  
Track history (hours):
 
Tides and Currents Weather Stations Pressure Air Temp Water Temp Dewpoint Dewpoint Depression Visibility Wind Speed Wind Dir Waves Ship Positions

Kukimaru No.13

Last reported at 2018-Feb-22 07:00 UTC. Time now 2018-Feb-23 00:58 UTC.
Position N 34°05' E 132°35'.

Length 75 m.

Type: Cargo ship. MMSI: 431000251.

Date/timePositionNaut miles runAvg speedWind from/ knotsBaromVisibWave heightAir tempDewpointWater temp
2018-Feb-22 07:00N 34°05' E 132°35'6 0.3
2018-Feb-21 10:38N 34°11' E 132°37'  
2018-Feb-18 07:07N 34°31' E 134°41'310.7
2018-Feb-18 06:52N 34°32' E 134°44'411.0
2018-Feb-18 06:30N 34°34' E 134°48'5 9.6
2018-Feb-18 05:58N 34°36' E 134°54'4 9.5
2018-Feb-18 05:30N 34°37' E 134°59'4 8.8
2018-Feb-18 05:00N 34°36' E 135°04'611.5
2018-Feb-18 04:30N 34°36' E 135°11'611.8
2018-Feb-18 04:00N 34°37' E 135°18'510.5
2018-Feb-18 03:30N 34°36' E 135°25'2 3.1
2018-Feb-18 02:58N 34°35' E 135°26'0 0.0
2018-Feb-18 02:28N 34°35' E 135°26'0 0.0
2018-Feb-18 01:58N 34°35' E 135°26'0 0.0
2018-Feb-18 01:28N 34°35' E 135°26'0 0.0
2018-Feb-18 00:58N 34°35' E 135°26'0 0.0
2018-Feb-18 00:25N 34°35' E 135°26'0 0.0
2018-Feb-17 23:58N 34°35' E 135°26'0 0.0
2018-Feb-17 23:28N 34°35' E 135°26'0 0.0
2018-Feb-17 22:58N 34°35' E 135°26'0 0.0
2018-Feb-17 22:30N 34°35' E 135°26'1 1.2
2018-Feb-17 21:59N 34°35' E 135°27'0 0.0
2018-Feb-17 21:29N 34°35' E 135°27'0 0.1
2018-Feb-17 20:59N 34°35' E 135°27'0 0.0
2018-Feb-17 20:29N 34°35' E 135°27'0 0.0
2018-Feb-17 19:59N 34°35' E 135°27'0 0.1
2018-Feb-17 19:29N 34°35' E 135°27'0 0.8
2018-Feb-17 19:00N 34°35' E 135°26'5 9.6
2018-Feb-17 18:30N 34°35' E 135°21'510.9
2018-Feb-17 18:00N 34°31' E 135°16'510.5
2018-Feb-17 17:30N 34°27' E 135°12'510.4
2018-Feb-17 17:00N 34°23' E 135°08'510.1
2018-Feb-17 16:30N 34°19' E 135°05'4 8.4
2018-Feb-17 16:00N 34°15' E 135°03'5 9.9
2018-Feb-17 15:30N 34°10' E 135°02'510.0
2018-Feb-17 14:58N 34°05' E 135°02'510.1
2018-Feb-17 14:27N 34°00' E 135°02'243 8.5
2018-Feb-16 10:04N 35°11' E 139°44'211.5
2018-Feb-16 09:56N 35°12' E 139°45'510.8
2018-Feb-16 09:30N 35°17' E 139°45'611.2
2018-Feb-16 09:00N 35°22' E 139°42'5 9.8
2018-Feb-16 08:30N 35°26' E 139°46'510.2
2018-Feb-16 07:58N 35°22' E 139°51'1 0.1
2018-Feb-16 03:20N 35°21' E 139°51'0 0.0
2018-Feb-16 02:53N 35°21' E 139°51'0 0.0
2018-Feb-16 02:16N 35°21' E 139°51'0 0.0
2018-Feb-16 01:42N 35°21' E 139°51'0 0.2
2018-Feb-16 01:29N 35°21' E 139°51'0 0.1
2018-Feb-16 00:59N 35°21' E 139°51'0 0.1
2018-Feb-16 00:24N 35°21' E 139°51'0 0.0
2018-Feb-16 00:00N 35°21' E 139°51'0 0.0
2018-Feb-15 23:18N 35°21' E 139°51'0 0.0
2018-Feb-15 22:57N 35°21' E 139°51'0 0.0
2018-Feb-15 20:57N 35°21' E 139°51'0 0.0
2018-Feb-15 20:03N 35°21' E 139°51'0 0.0
2018-Feb-15 17:51N 35°21' E 139°51'0 0.0
2018-Feb-15 17:24N 35°21' E 139°51'0 0.0
2018-Feb-15 17:00N 35°21' E 139°51'0 0.0
2018-Feb-15 16:30N 35°21' E 139°51'0 0.0
2018-Feb-15 15:42N 35°21' E 139°51'0 0.0
2018-Feb-15 15:15N 35°21' E 139°51'0 0.0
2018-Feb-15 13:51N 35°21' E 139°51'0 0.0
2018-Feb-15 13:30N 35°21' E 139°51'0 0.0
2018-Feb-15 12:57N 35°21' E 139°51'0 0.0
2018-Feb-15 12:24N 35°21' E 139°51'0 0.0
2018-Feb-15 11:54N 35°21' E 139°51'0 0.0
2018-Feb-15 09:57N 35°21' E 139°51'0 0.0
2018-Feb-15 09:30N 35°21' E 139°51'0 0.0
2018-Feb-15 07:47N 35°21' E 139°51'0 0.0
2018-Feb-15 06:52N 35°21' E 139°51'0 0.1
2018-Feb-15 06:23N 35°21' E 139°51'0 0.1
2018-Feb-15 05:50N 35°21' E 139°51'0 0.0
2018-Feb-15 05:17N 35°21' E 139°51'0 0.0
2018-Feb-15 05:00N 35°21' E 139°51'0 0.0
2018-Feb-15 04:04N 35°21' E 139°51'0 0.1
2018-Feb-15 03:58N 35°21' E 139°51'0 0.0
2018-Feb-15 03:16N 35°21' E 139°51'0 0.1
2018-Feb-15 02:58N 35°21' E 139°51'0 0.0
2018-Feb-15 02:24N 35°21' E 139°51'0 0.0
2018-Feb-15 01:56N 35°21' E 139°51'0 0.0
2018-Feb-15 01:30N 35°21' E 139°51'0 0.0
2018-Feb-15 00:04N 35°21' E 139°51'0 0.1
2018-Feb-14 23:55N 35°21' E 139°51'0 0.0
2018-Feb-14 23:25N 35°21' E 139°51'0 0.0
2018-Feb-14 22:07N 35°21' E 139°51'0 0.0
2018-Feb-14 21:55N 35°21' E 139°51'0 0.0
2018-Feb-14 21:19N 35°21' E 139°51'0 0.0
2018-Feb-14 20:55N 35°21' E 139°51'0 0.0
2018-Feb-14 20:25N 35°21' E 139°51'0 0.0
2018-Feb-14 19:55N 35°21' E 139°51'0 0.0
2018-Feb-14 19:28N 35°21' E 139°51'0 0.0
2018-Feb-14 18:13N 35°21' E 139°51'0 0.1
2018-Feb-14 17:55N 35°21' E 139°51'0 0.0
2018-Feb-14 17:22N 35°21' E 139°51'0 0.0
2018-Feb-14 16:58N 35°21' E 139°51'0 0.0
2018-Feb-14 14:10N 35°21' E 139°51'0 0.0
2018-Feb-14 12:19N 35°21' E 139°51'0 0.0
2018-Feb-14 12:00N 35°21' E 139°51'0 0.0
2018-Feb-14 10:45N 35°21' E 139°51'0 0.0
2018-Feb-14 08:33N 35°21' E 139°51'0 0.0
2018-Feb-14 08:18N 35°21' E 139°51'0 0.0
2018-Feb-14 06:30N 35°21' E 139°51'0 0.1
2018-Feb-14 06:00N 35°21' E 139°51'0 0.0
2018-Feb-14 03:15N 35°21' E 139°51'0 0.0
2018-Feb-14 02:57N 35°21' E 139°51'0 0.0
2018-Feb-13 22:22N 35°21' E 139°51'2 3.2
2018-Feb-13 21:46N 35°22' E 139°49'0 0.0
2018-Feb-13 21:28N 35°22' E 139°49'0 0.0
2018-Feb-13 20:40N 35°22' E 139°49'0 0.0
2018-Feb-13 20:25N 35°22' E 139°49'0 0.0
2018-Feb-13 19:58N 35°22' E 139°49'0 0.0
2018-Feb-13 19:25N 35°22' E 139°49'0 0.1
2018-Feb-13 18:37N 35°22' E 139°49'0 0.0
2018-Feb-13 18:25N 35°22' E 139°49'0 0.0
2018-Feb-13 17:55N 35°22' E 139°49'0 0.0
2018-Feb-13 17:28N 35°22' E 139°49'0 0.0
2018-Feb-13 16:58N 35°22' E 139°49'0 0.0
2018-Feb-13 16:25N 35°22' E 139°49'0 0.0
2018-Feb-13 15:58N 35°22' E 139°49'1 1.5
2018-Feb-13 15:30N 35°22' E 139°48'5 9.4
2018-Feb-13 15:00N 35°19' E 139°44'612.1
2018-Feb-13 14:28N 35°13' E 139°47'910.9
2018-Feb-13 13:38N 35°06' E 139°39'37 3.6
2018-Feb-13 03:12N 34°43' E 139°04'311.4
2018-Feb-13 02:57N 34°41' E 139°02'11211.2
2018-Feb-12 16:56N 34°48' E 136°46'511.9
2018-Feb-12 16:30N 34°53' E 136°46'611.2
2018-Feb-12 16:00N 34°59' E 136°48'510.9
2018-Feb-12 15:30N 35°03' E 136°52'1 2.8
2018-Feb-12 14:58N 35°05' E 136°52'0 0.0
2018-Feb-12 14:28N 35°05' E 136°52'0 0.0
2018-Feb-12 13:58N 35°05' E 136°52'0 0.0
2018-Feb-12 13:28N 35°05' E 136°52'0 0.0
2018-Feb-12 12:58N 35°05' E 136°52'0 0.0
2018-Feb-12 12:28N 35°05' E 136°52'0 0.0
2018-Feb-12 11:58N 35°05' E 136°52'0 0.0
2018-Feb-12 11:28N 35°05' E 136°52'0 0.0
2018-Feb-12 10:58N 35°05' E 136°52'0 0.0
2018-Feb-12 10:28N 35°05' E 136°52'0 0.0
2018-Feb-12 09:55N 35°05' E 136°52'0 0.0
2018-Feb-12 09:25N 35°05' E 136°52'0 0.0
2018-Feb-12 08:52N 35°05' E 136°52'0 0.0
2018-Feb-12 08:28N 35°05' E 136°52'0 0.0
2018-Feb-12 07:58N 35°05' E 136°52'0 0.0
2018-Feb-12 07:25N 35°05' E 136°52'  

Dump ship's entire track history